sensor_id;sensor_type;location;lat;lon;timestamp;temperature;humidity
12413;DHT22;13877;18.896;-99.222;2023-05-13T00:01:55;27.80;44.20
12413;DHT22;13877;18.896;-99.222;2023-05-13T00:04:22;27.80;44.60
12413;DHT22;13877;18.896;-99.222;2023-05-13T00:06:48;27.70;44.30
12413;DHT22;13877;18.896;-99.222;2023-05-13T00:09:16;27.70;43.50
12413;DHT22;13877;18.896;-99.222;2023-05-13T00:11:42;27.70;43.50
12413;DHT22;13877;18.896;-99.222;2023-05-13T00:14:10;27.70;45.00
12413;DHT22;13877;18.896;-99.222;2023-05-13T00:16:37;27.70;46.60
12413;DHT22;13877;18.896;-99.222;2023-05-13T00:19:04;27.50;46.40
12413;DHT22;13877;18.896;-99.222;2023-05-13T00:21:30;27.50;46.50
12413;DHT22;13877;18.896;-99.222;2023-05-13T00:23:59;27.40;45.10
12413;DHT22;13877;18.896;-99.222;2023-05-13T00:26:26;27.30;44.40
12413;DHT22;13877;18.896;-99.222;2023-05-13T00:28:53;27.30;42.70
12413;DHT22;13877;18.896;-99.222;2023-05-13T00:31:20;27.30;41.10
12413;DHT22;13877;18.896;-99.222;2023-05-13T00:33:47;27.30;38.60
12413;DHT22;13877;18.896;-99.222;2023-05-13T00:36:14;27.40;36.90
12413;DHT22;13877;18.896;-99.222;2023-05-13T00:38:41;27.30;36.10
12413;DHT22;13877;18.896;-99.222;2023-05-13T00:41:09;27.30;36.10
12413;DHT22;13877;18.896;-99.222;2023-05-13T00:43:37;27.30;35.70
12413;DHT22;13877;18.896;-99.222;2023-05-13T00:46:04;27.20;35.70
12413;DHT22;13877;18.896;-99.222;2023-05-13T00:48:32;27.10;35.50
12413;DHT22;13877;18.896;-99.222;2023-05-13T00:50:59;27.10;35.00
12413;DHT22;13877;18.896;-99.222;2023-05-13T00:53:26;27.00;35.20
12413;DHT22;13877;18.896;-99.222;2023-05-13T00:55:53;27.00;35.50
12413;DHT22;13877;18.896;-99.222;2023-05-13T00:58:21;26.90;34.60
12413;DHT22;13877;18.896;-99.222;2023-05-13T01:07:08;26.80;33.20
12413;DHT22;13877;18.896;-99.222;2023-05-13T01:12:15;26.70;32.70
12413;DHT22;13877;18.896;-99.222;2023-05-13T01:14:51;26.70;32.90
12413;DHT22;13877;18.896;-99.222;2023-05-13T01:17:28;26.70;32.60
12413;DHT22;13877;18.896;-99.222;2023-05-13T01:19:59;26.70;32.20
12413;DHT22;13877;18.896;-99.222;2023-05-13T01:22:28;26.60;32.40
12413;DHT22;13877;18.896;-99.222;2023-05-13T01:24:54;26.60;32.20
12413;DHT22;13877;18.896;-99.222;2023-05-13T01:27:22;26.50;32.30
12413;DHT22;13877;18.896;-99.222;2023-05-13T01:29:49;26.40;32.20
12413;DHT22;13877;18.896;-99.222;2023-05-13T01:32:21;26.40;32.30
12413;DHT22;13877;18.896;-99.222;2023-05-13T01:34:50;26.50;32.50
12413;DHT22;13877;18.896;-99.222;2023-05-13T01:37:18;26.50;32.20
12413;DHT22;13877;18.896;-99.222;2023-05-13T01:39:46;26.50;32.10
12413;DHT22;13877;18.896;-99.222;2023-05-13T01:42:14;26.40;32.90
12413;DHT22;13877;18.896;-99.222;2023-05-13T01:44:42;26.50;32.50
12413;DHT22;13877;18.896;-99.222;2023-05-13T01:47:09;26.40;32.40
12413;DHT22;13877;18.896;-99.222;2023-05-13T01:49:36;26.40;32.60
12413;DHT22;13877;18.896;-99.222;2023-05-13T01:52:03;26.20;33.10
12413;DHT22;13877;18.896;-99.222;2023-05-13T01:54:31;26.20;33.50
12413;DHT22;13877;18.896;-99.222;2023-05-13T01:57:04;26.10;33.70
12413;DHT22;13877;18.896;-99.222;2023-05-13T01:59:32;26.10;33.50
12413;DHT22;13877;18.896;-99.222;2023-05-13T02:01:59;26.10;33.60
12413;DHT22;13877;18.896;-99.222;2023-05-13T02:04:26;26.10;33.60
12413;DHT22;13877;18.896;-99.222;2023-05-13T02:06:53;26.10;33.80
12413;DHT22;13877;18.896;-99.222;2023-05-13T02:09:20;26.10;35.00
12413;DHT22;13877;18.896;-99.222;2023-05-13T02:11:47;26.00;34.60
12413;DHT22;13877;18.896;-99.222;2023-05-13T02:14:15;26.00;35.00
12413;DHT22;13877;18.896;-99.222;2023-05-13T02:16:42;26.00;35.70
12413;DHT22;13877;18.896;-99.222;2023-05-13T02:19:09;26.00;36.00
12413;DHT22;13877;18.896;-99.222;2023-05-13T02:21:36;25.90;36.60
12413;DHT22;13877;18.896;-99.222;2023-05-13T02:24:06;25.90;37.00
12413;DHT22;13877;18.896;-99.222;2023-05-13T02:26:33;25.80;37.30
12413;DHT22;13877;18.896;-99.222;2023-05-13T02:29:01;25.70;37.10
12413;DHT22;13877;18.896;-99.222;2023-05-13T02:31:28;25.70;37.40
12413;DHT22;13877;18.896;-99.222;2023-05-13T02:33:55;25.70;37.50
12413;DHT22;13877;18.896;-99.222;2023-05-13T02:36:22;25.70;38.10
12413;DHT22;13877;18.896;-99.222;2023-05-13T02:38:49;25.70;38.10
12413;DHT22;13877;18.896;-99.222;2023-05-13T02:41:16;25.70;37.30
12413;DHT22;13877;18.896;-99.222;2023-05-13T02:43:43;25.60;37.40
12413;DHT22;13877;18.896;-99.222;2023-05-13T02:46:10;25.50;37.40
12413;DHT22;13877;18.896;-99.222;2023-05-13T02:48:37;25.40;37.90
12413;DHT22;13877;18.896;-99.222;2023-05-13T02:51:05;25.60;35.40
12413;DHT22;13877;18.896;-99.222;2023-05-13T02:53:32;25.50;35.60
12413;DHT22;13877;18.896;-99.222;2023-05-13T02:56:03;25.50;35.40
12413;DHT22;13877;18.896;-99.222;2023-05-13T02:58:30;25.50;35.40
12413;DHT22;13877;18.896;-99.222;2023-05-13T03:00:58;25.50;35.60
12413;DHT22;13877;18.896;-99.222;2023-05-13T03:03:25;25.50;35.40
12413;DHT22;13877;18.896;-99.222;2023-05-13T03:05:52;25.50;35.40
12413;DHT22;13877;18.896;-99.222;2023-05-13T03:08:19;25.60;35.00
12413;DHT22;13877;18.896;-99.222;2023-05-13T03:10:46;25.50;34.70
12413;DHT22;13877;18.896;-99.222;2023-05-13T03:13:13;25.50;34.90
12413;DHT22;13877;18.896;-99.222;2023-05-13T03:15:40;25.40;34.90
12413;DHT22;13877;18.896;-99.222;2023-05-13T03:18:07;25.40;34.90
12413;DHT22;13877;18.896;-99.222;2023-05-13T03:20:34;25.30;34.80
12413;DHT22;13877;18.896;-99.222;2023-05-13T03:23:03;25.20;34.90
12413;DHT22;13877;18.896;-99.222;2023-05-13T03:25:31;25.20;34.90
12413;DHT22;13877;18.896;-99.222;2023-05-13T03:27:58;25.20;34.70
12413;DHT22;13877;18.896;-99.222;2023-05-13T03:30:29;25.20;34.30
12413;DHT22;13877;18.896;-99.222;2023-05-13T03:33:02;25.20;34.40
12413;DHT22;13877;18.896;-99.222;2023-05-13T03:35:30;25.20;34.20
12413;DHT22;13877;18.896;-99.222;2023-05-13T03:37:57;25.10;34.10
12413;DHT22;13877;18.896;-99.222;2023-05-13T03:40:25;25.00;34.40
12413;DHT22;13877;18.896;-99.222;2023-05-13T03:42:52;24.90;34.60
12413;DHT22;13877;18.896;-99.222;2023-05-13T03:45:22;24.80;34.90
12413;DHT22;13877;18.896;-99.222;2023-05-13T03:47:53;24.70;35.10
12413;DHT22;13877;18.896;-99.222;2023-05-13T03:50:22;24.70;35.20
12413;DHT22;13877;18.896;-99.222;2023-05-13T03:52:51;24.80;36.00
12413;DHT22;13877;18.896;-99.222;2023-05-13T03:55:19;24.80;36.00
12413;DHT22;13877;18.896;-99.222;2023-05-13T03:57:47;24.70;36.40
12413;DHT22;13877;18.896;-99.222;2023-05-13T04:00:17;24.50;36.20
12413;DHT22;13877;18.896;-99.222;2023-05-13T04:02:43;24.40;36.80
12413;DHT22;13877;18.896;-99.222;2023-05-13T04:05:12;24.30;37.10
12413;DHT22;13877;18.896;-99.222;2023-05-13T04:07:39;24.10;36.80
12413;DHT22;13877;18.896;-99.222;2023-05-13T04:10:07;23.90;37.50
12413;DHT22;13877;18.896;-99.222;2023-05-13T04:12:34;24.10;37.60
12413;DHT22;13877;18.896;-99.222;2023-05-13T04:15:01;24.20;37.30
12413;DHT22;13877;18.896;-99.222;2023-05-13T04:17:29;24.30;37.90
12413;DHT22;13877;18.896;-99.222;2023-05-13T04:19:56;24.20;39.00
12413;DHT22;13877;18.896;-99.222;2023-05-13T04:22:23;24.40;39.80
12413;DHT22;13877;18.896;-99.222;2023-05-13T04:24:51;24.50;40.30
12413;DHT22;13877;18.896;-99.222;2023-05-13T04:27:22;24.70;40.40
12413;DHT22;13877;18.896;-99.222;2023-05-13T04:29:52;24.60;40.40
12413;DHT22;13877;18.896;-99.222;2023-05-13T04:32:19;24.60;40.50
12413;DHT22;13877;18.896;-99.222;2023-05-13T04:34:53;24.70;40.30
12413;DHT22;13877;18.896;-99.222;2023-05-13T04:37:21;24.60;40.40
12413;DHT22;13877;18.896;-99.222;2023-05-13T04:39:50;24.50;40.60
12413;DHT22;13877;18.896;-99.222;2023-05-13T04:42:21;24.30;41.00
12413;DHT22;13877;18.896;-99.222;2023-05-13T04:44:48;24.30;41.10
12413;DHT22;13877;18.896;-99.222;2023-05-13T04:47:14;24.20;41.10
12413;DHT22;13877;18.896;-99.222;2023-05-13T04:49:43;24.10;41.30
12413;DHT22;13877;18.896;-99.222;2023-05-13T04:52:10;24.20;41.10
12413;DHT22;13877;18.896;-99.222;2023-05-13T04:54:38;24.20;41.50
12413;DHT22;13877;18.896;-99.222;2023-05-13T04:57:06;24.10;41.00
12413;DHT22;13877;18.896;-99.222;2023-05-13T04:59:33;24.30;40.70
12413;DHT22;13877;18.896;-99.222;2023-05-13T05:02:00;24.00;41.40
12413;DHT22;13877;18.896;-99.222;2023-05-13T05:04:28;23.90;41.40
12413;DHT22;13877;18.896;-99.222;2023-05-13T05:06:55;23.90;41.20
12413;DHT22;13877;18.896;-99.222;2023-05-13T05:09:22;23.90;41.30
12413;DHT22;13877;18.896;-99.222;2023-05-13T05:11:51;23.70;41.60
12413;DHT22;13877;18.896;-99.222;2023-05-13T05:14:21;23.60;41.80
12413;DHT22;13877;18.896;-99.222;2023-05-13T05:16:49;23.70;41.60
12413;DHT22;13877;18.896;-99.222;2023-05-13T05:19:16;24.20;40.80
12413;DHT22;13877;18.896;-99.222;2023-05-13T05:21:43;24.20;40.70
12413;DHT22;13877;18.896;-99.222;2023-05-13T05:24:11;24.00;41.00
12413;DHT22;13877;18.896;-99.222;2023-05-13T05:26:38;23.90;41.10
12413;DHT22;13877;18.896;-99.222;2023-05-13T05:29:05;24.00;41.50
12413;DHT22;13877;18.896;-99.222;2023-05-13T05:31:32;24.10;41.40
12413;DHT22;13877;18.896;-99.222;2023-05-13T05:34:02;24.00;41.50
12413;DHT22;13877;18.896;-99.222;2023-05-13T05:36:29;24.00;41.70
12413;DHT22;13877;18.896;-99.222;2023-05-13T05:38:56;23.80;42.10
12413;DHT22;13877;18.896;-99.222;2023-05-13T05:41:30;23.50;42.20
12413;DHT22;13877;18.896;-99.222;2023-05-13T05:43:57;23.20;42.50
12413;DHT22;13877;18.896;-99.222;2023-05-13T05:46:24;23.30;43.00
12413;DHT22;13877;18.896;-99.222;2023-05-13T05:48:51;23.30;42.70
12413;DHT22;13877;18.896;-99.222;2023-05-13T05:51:19;23.10;43.60
12413;DHT22;13877;18.896;-99.222;2023-05-13T05:53:46;23.00;44.10
12413;DHT22;13877;18.896;-99.222;2023-05-13T05:56:15;22.60;44.60
12413;DHT22;13877;18.896;-99.222;2023-05-13T05:58:44;22.40;46.40
12413;DHT22;13877;18.896;-99.222;2023-05-13T06:01:11;22.40;45.50
12413;DHT22;13877;18.896;-99.222;2023-05-13T06:03:38;22.10;46.00
12413;DHT22;13877;18.896;-99.222;2023-05-13T06:06:05;21.80;46.20
12413;DHT22;13877;18.896;-99.222;2023-05-13T06:08:33;21.70;46.40
12413;DHT22;13877;18.896;-99.222;2023-05-13T06:11:00;21.90;46.40
12413;DHT22;13877;18.896;-99.222;2023-05-13T06:13:27;22.00;45.30
12413;DHT22;13877;18.896;-99.222;2023-05-13T06:15:54;22.00;45.60
12413;DHT22;13877;18.896;-99.222;2023-05-13T06:18:21;22.00;45.20
12413;DHT22;13877;18.896;-99.222;2023-05-13T06:20:48;22.00;45.20
12413;DHT22;13877;18.896;-99.222;2023-05-13T06:23:17;22.00;45.10
12413;DHT22;13877;18.896;-99.222;2023-05-13T06:25:44;21.90;45.30
12413;DHT22;13877;18.896;-99.222;2023-05-13T06:28:12;21.80;45.90
12413;DHT22;13877;18.896;-99.222;2023-05-13T06:30:39;21.70;46.60
12413;DHT22;13877;18.896;-99.222;2023-05-13T06:33:06;21.60;47.20
12413;DHT22;13877;18.896;-99.222;2023-05-13T06:35:37;21.50;47.20
12413;DHT22;13877;18.896;-99.222;2023-05-13T06:38:05;21.70;46.50
12413;DHT22;13877;18.896;-99.222;2023-05-13T06:40:33;21.80;45.70
12413;DHT22;13877;18.896;-99.222;2023-05-13T06:43:00;21.90;46.00
12413;DHT22;13877;18.896;-99.222;2023-05-13T06:45:36;22.00;46.00
12413;DHT22;13877;18.896;-99.222;2023-05-13T06:48:03;22.00;46.00
12413;DHT22;13877;18.896;-99.222;2023-05-13T06:50:30;21.90;45.70
12413;DHT22;13877;18.896;-99.222;2023-05-13T06:52:57;21.70;45.60
12413;DHT22;13877;18.896;-99.222;2023-05-13T06:55:23;21.80;46.00
12413;DHT22;13877;18.896;-99.222;2023-05-13T06:57:51;21.70;45.80
12413;DHT22;13877;18.896;-99.222;2023-05-13T07:00:18;21.60;46.40
12413;DHT22;13877;18.896;-99.222;2023-05-13T07:02:47;21.60;46.00
12413;DHT22;13877;18.896;-99.222;2023-05-13T07:05:14;21.50;46.20
12413;DHT22;13877;18.896;-99.222;2023-05-13T07:07:41;21.40;46.40
12413;DHT22;13877;18.896;-99.222;2023-05-13T07:10:08;21.50;46.20
12413;DHT22;13877;18.896;-99.222;2023-05-13T07:12:36;21.40;46.00
12413;DHT22;13877;18.896;-99.222;2023-05-13T07:15:03;21.40;46.30
12413;DHT22;13877;18.896;-99.222;2023-05-13T07:17:33;21.40;46.00
12413;DHT22;13877;18.896;-99.222;2023-05-13T07:19:59;21.40;45.90
12413;DHT22;13877;18.896;-99.222;2023-05-13T07:22:26;21.30;45.70
12413;DHT22;13877;18.896;-99.222;2023-05-13T07:24:53;21.30;45.80
12413;DHT22;13877;18.896;-99.222;2023-05-13T07:27:20;21.30;45.70
12413;DHT22;13877;18.896;-99.222;2023-05-13T07:29:47;21.20;45.80
12413;DHT22;13877;18.896;-99.222;2023-05-13T07:32:14;21.30;46.00
12413;DHT22;13877;18.896;-99.222;2023-05-13T07:34:41;21.30;46.20
12413;DHT22;13877;18.896;-99.222;2023-05-13T07:37:08;21.20;46.20
12413;DHT22;13877;18.896;-99.222;2023-05-13T07:39:35;21.20;46.40
12413;DHT22;13877;18.896;-99.222;2023-05-13T07:42:02;21.20;46.60
12413;DHT22;13877;18.896;-99.222;2023-05-13T07:44:29;21.10;46.30
12413;DHT22;13877;18.896;-99.222;2023-05-13T07:46:56;21.20;46.30
12413;DHT22;13877;18.896;-99.222;2023-05-13T07:49:23;21.20;46.10
12413;DHT22;13877;18.896;-99.222;2023-05-13T07:51:50;21.10;46.20
12413;DHT22;13877;18.896;-99.222;2023-05-13T07:54:17;21.10;46.10
12413;DHT22;13877;18.896;-99.222;2023-05-13T07:56:44;21.00;46.20
12413;DHT22;13877;18.896;-99.222;2023-05-13T07:59:11;21.10;46.30
12413;DHT22;13877;18.896;-99.222;2023-05-13T08:01:38;21.10;46.30
12413;DHT22;13877;18.896;-99.222;2023-05-13T08:04:05;21.00;46.40
12413;DHT22;13877;18.896;-99.222;2023-05-13T08:06:32;21.00;46.50
12413;DHT22;13877;18.896;-99.222;2023-05-13T08:09:02;21.00;46.30
12413;DHT22;13877;18.896;-99.222;2023-05-13T08:11:29;21.00;46.50
12413;DHT22;13877;18.896;-99.222;2023-05-13T08:13:56;20.90;46.40
12413;DHT22;13877;18.896;-99.222;2023-05-13T08:16:23;20.90;46.60
12413;DHT22;13877;18.896;-99.222;2023-05-13T08:18:50;20.90;46.70
12413;DHT22;13877;18.896;-99.222;2023-05-13T08:21:17;20.90;46.90
12413;DHT22;13877;18.896;-99.222;2023-05-13T08:23:44;20.90;46.80
12413;DHT22;13877;18.896;-99.222;2023-05-13T08:26:14;21.00;46.80
12413;DHT22;13877;18.896;-99.222;2023-05-13T08:28:41;20.90;47.00
12413;DHT22;13877;18.896;-99.222;2023-05-13T08:31:11;20.80;47.20
12413;DHT22;13877;18.896;-99.222;2023-05-13T08:33:41;20.80;47.40
12413;DHT22;13877;18.896;-99.222;2023-05-13T08:36:10;20.80;47.40
12413;DHT22;13877;18.896;-99.222;2023-05-13T08:38:36;20.70;47.70
12413;DHT22;13877;18.896;-99.222;2023-05-13T08:41:04;20.70;47.90
12413;DHT22;13877;18.896;-99.222;2023-05-13T08:43:32;20.60;48.40
12413;DHT22;13877;18.896;-99.222;2023-05-13T08:46:02;20.50;48.60
12413;DHT22;13877;18.896;-99.222;2023-05-13T08:48:30;20.60;48.30
12413;DHT22;13877;18.896;-99.222;2023-05-13T08:50:57;20.60;48.10
12413;DHT22;13877;18.896;-99.222;2023-05-13T08:53:25;20.50;48.30
12413;DHT22;13877;18.896;-99.222;2023-05-13T08:55:53;20.40;48.50
12413;DHT22;13877;18.896;-99.222;2023-05-13T08:58:20;20.40;48.50
12413;DHT22;13877;18.896;-99.222;2023-05-13T09:00:48;20.50;48.30
12413;DHT22;13877;18.896;-99.222;2023-05-13T09:03:15;20.60;48.10
12413;DHT22;13877;18.896;-99.222;2023-05-13T09:05:46;20.50;48.30
12413;DHT22;13877;18.896;-99.222;2023-05-13T09:08:16;20.50;48.80
12413;DHT22;13877;18.896;-99.222;2023-05-13T09:10:43;20.50;48.80
12413;DHT22;13877;18.896;-99.222;2023-05-13T09:13:15;20.50;49.00
12413;DHT22;13877;18.896;-99.222;2023-05-13T09:15:43;20.40;48.90
12413;DHT22;13877;18.896;-99.222;2023-05-13T09:18:10;20.40;48.90
12413;DHT22;13877;18.896;-99.222;2023-05-13T09:20:39;20.40;49.20
12413;DHT22;13877;18.896;-99.222;2023-05-13T09:23:09;20.30;49.70
12413;DHT22;13877;18.896;-99.222;2023-05-13T09:25:37;20.20;49.70
12413;DHT22;13877;18.896;-99.222;2023-05-13T09:28:05;20.20;49.80
12413;DHT22;13877;18.896;-99.222;2023-05-13T09:30:36;20.20;50.30
12413;DHT22;13877;18.896;-99.222;2023-05-13T09:33:14;20.10;50.30
12413;DHT22;13877;18.896;-99.222;2023-05-13T09:35:42;20.00;50.30
12413;DHT22;13877;18.896;-99.222;2023-05-13T09:40:40;20.00;50.50
12413;DHT22;13877;18.896;-99.222;2023-05-13T09:43:07;19.90;50.70
12413;DHT22;13877;18.896;-99.222;2023-05-13T09:45:35;19.90;50.90
12413;DHT22;13877;18.896;-99.222;2023-05-13T09:48:02;19.90;50.90
12413;DHT22;13877;18.896;-99.222;2023-05-13T09:50:30;19.80;51.30
12413;DHT22;13877;18.896;-99.222;2023-05-13T09:52:58;19.80;51.20
12413;DHT22;13877;18.896;-99.222;2023-05-13T09:55:35;20.00;51.00
12413;DHT22;13877;18.896;-99.222;2023-05-13T09:58:08;20.10;50.80
12413;DHT22;13877;18.896;-99.222;2023-05-13T10:00:35;20.20;50.80
12413;DHT22;13877;18.896;-99.222;2023-05-13T10:03:03;20.20;50.50
12413;DHT22;13877;18.896;-99.222;2023-05-13T10:05:32;20.10;50.60
12413;DHT22;13877;18.896;-99.222;2023-05-13T10:08:00;20.10;50.90
12413;DHT22;13877;18.896;-99.222;2023-05-13T10:10:31;20.10;50.90
12413;DHT22;13877;18.896;-99.222;2023-05-13T10:13:12;20.00;50.90
12413;DHT22;13877;18.896;-99.222;2023-05-13T10:15:50;19.80;51.20
12413;DHT22;13877;18.896;-99.222;2023-05-13T10:18:18;19.70;51.60
12413;DHT22;13877;18.896;-99.222;2023-05-13T10:20:46;19.60;52.00
12413;DHT22;13877;18.896;-99.222;2023-05-13T10:23:19;19.60;52.00
12413;DHT22;13877;18.896;-99.222;2023-05-13T10:25:53;19.60;52.40
12413;DHT22;13877;18.896;-99.222;2023-05-13T10:28:24;19.50;52.10
12413;DHT22;13877;18.896;-99.222;2023-05-13T10:30:51;19.60;51.70
12413;DHT22;13877;18.896;-99.222;2023-05-13T10:33:19;19.90;51.50
12413;DHT22;13877;18.896;-99.222;2023-05-13T10:36:15;19.90;50.70
12413;DHT22;13877;18.896;-99.222;2023-05-13T10:41:34;19.90;50.50
12413;DHT22;13877;18.896;-99.222;2023-05-13T10:44:05;20.10;50.70
12413;DHT22;13877;18.896;-99.222;2023-05-13T10:46:33;20.00;50.10
12413;DHT22;13877;18.896;-99.222;2023-05-13T10:49:00;20.00;50.00
12413;DHT22;13877;18.896;-99.222;2023-05-13T10:51:27;19.90;50.20
12413;DHT22;13877;18.896;-99.222;2023-05-13T10:53:56;19.90;50.70
12413;DHT22;13877;18.896;-99.222;2023-05-13T10:56:27;19.90;50.30
12413;DHT22;13877;18.896;-99.222;2023-05-13T10:58:58;19.80;50.50
12413;DHT22;13877;18.896;-99.222;2023-05-13T11:01:36;19.70;50.70
12413;DHT22;13877;18.896;-99.222;2023-05-13T11:04:16;19.60;50.70
12413;DHT22;13877;18.896;-99.222;2023-05-13T11:06:45;19.50;50.80
12413;DHT22;13877;18.896;-99.222;2023-05-13T11:11:53;19.50;50.60
12413;DHT22;13877;18.896;-99.222;2023-05-13T11:14:20;19.50;50.90
12413;DHT22;13877;18.896;-99.222;2023-05-13T11:19:31;19.50;50.80
12413;DHT22;13877;18.896;-99.222;2023-05-13T11:24:39;19.70;50.50
12413;DHT22;13877;18.896;-99.222;2023-05-13T11:27:16;19.80;50.10
12413;DHT22;13877;18.896;-99.222;2023-05-13T11:32:51;19.80;50.10
12413;DHT22;13877;18.896;-99.222;2023-05-13T11:35:30;19.80;50.30
12413;DHT22;13877;18.896;-99.222;2023-05-13T11:37:59;19.70;50.20
12413;DHT22;13877;18.896;-99.222;2023-05-13T11:40:32;19.80;50.20
12413;DHT22;13877;18.896;-99.222;2023-05-13T11:43:00;19.90;50.00
12413;DHT22;13877;18.896;-99.222;2023-05-13T11:45:28;19.90;50.10
12413;DHT22;13877;18.896;-99.222;2023-05-13T11:47:55;20.00;49.80
12413;DHT22;13877;18.896;-99.222;2023-05-13T11:53:00;19.90;49.90
12413;DHT22;13877;18.896;-99.222;2023-05-13T11:55:36;19.90;50.10
12413;DHT22;13877;18.896;-99.222;2023-05-13T11:58:03;20.00;49.80
12413;DHT22;13877;18.896;-99.222;2023-05-13T12:00:34;20.10;49.80
12413;DHT22;13877;18.896;-99.222;2023-05-13T12:03:09;20.00;49.80
12413;DHT22;13877;18.896;-99.222;2023-05-13T12:05:40;19.90;50.90
12413;DHT22;13877;18.896;-99.222;2023-05-13T12:08:07;19.90;50.40
12413;DHT22;13877;18.896;-99.222;2023-05-13T12:10:44;20.00;50.20
12413;DHT22;13877;18.896;-99.222;2023-05-13T12:13:11;19.90;50.40
12413;DHT22;13877;18.896;-99.222;2023-05-13T12:15:40;19.90;50.40
12413;DHT22;13877;18.896;-99.222;2023-05-13T12:18:07;19.90;50.40
12413;DHT22;13877;18.896;-99.222;2023-05-13T12:20:34;20.00;50.40
12413;DHT22;13877;18.896;-99.222;2023-05-13T12:23:02;20.00;50.50
12413;DHT22;13877;18.896;-99.222;2023-05-13T12:28:19;20.20;50.50
12413;DHT22;13877;18.896;-99.222;2023-05-13T12:30:53;20.30;50.40
12413;DHT22;13877;18.896;-99.222;2023-05-13T12:33:29;20.30;50.60
12413;DHT22;13877;18.896;-99.222;2023-05-13T12:38:58;20.60;50.20
12413;DHT22;13877;18.896;-99.222;2023-05-13T12:41:28;20.70;50.00
12413;DHT22;13877;18.896;-99.222;2023-05-13T12:44:08;20.80;49.90
12413;DHT22;13877;18.896;-99.222;2023-05-13T12:46:36;20.80;50.20
12413;DHT22;13877;18.896;-99.222;2023-05-13T12:49:04;20.80;50.70
12413;DHT22;13877;18.896;-99.222;2023-05-13T12:51:31;20.80;50.70
12413;DHT22;13877;18.896;-99.222;2023-05-13T12:53:59;20.80;51.50
12413;DHT22;13877;18.896;-99.222;2023-05-13T12:56:26;20.80;52.20
12413;DHT22;13877;18.896;-99.222;2023-05-13T12:58:53;21.00;53.10
12413;DHT22;13877;18.896;-99.222;2023-05-13T13:01:20;21.20;53.70
12413;DHT22;13877;18.896;-99.222;2023-05-13T13:03:47;21.40;52.90
12413;DHT22;13877;18.896;-99.222;2023-05-13T13:06:15;21.50;51.80
12413;DHT22;13877;18.896;-99.222;2023-05-13T13:08:41;21.60;52.50
12413;DHT22;13877;18.896;-99.222;2023-05-13T13:11:09;21.50;52.30
12413;DHT22;13877;18.896;-99.222;2023-05-13T13:13:40;21.50;51.60
12413;DHT22;13877;18.896;-99.222;2023-05-13T13:16:07;21.50;51.20
12413;DHT22;13877;18.896;-99.222;2023-05-13T13:18:36;21.60;50.90
12413;DHT22;13877;18.896;-99.222;2023-05-13T13:21:03;21.70;50.50
12413;DHT22;13877;18.896;-99.222;2023-05-13T13:23:31;21.90;50.70
12413;DHT22;13877;18.896;-99.222;2023-05-13T13:25:58;22.20;50.10
12413;DHT22;13877;18.896;-99.222;2023-05-13T13:28:26;22.50;49.10
12413;DHT22;13877;18.896;-99.222;2023-05-13T13:30:53;22.80;49.20
12413;DHT22;13877;18.896;-99.222;2023-05-13T13:33:20;23.10;48.00
12413;DHT22;13877;18.896;-99.222;2023-05-13T13:35:48;23.40;47.70
12413;DHT22;13877;18.896;-99.222;2023-05-13T13:38:16;23.70;47.50
12413;DHT22;13877;18.896;-99.222;2023-05-13T13:40:43;23.80;47.10
12413;DHT22;13877;18.896;-99.222;2023-05-13T13:43:10;24.10;47.30
12413;DHT22;13877;18.896;-99.222;2023-05-13T13:45:37;24.10;46.50
12413;DHT22;13877;18.896;-99.222;2023-05-13T13:48:04;24.40;44.90
12413;DHT22;13877;18.896;-99.222;2023-05-13T13:50:31;24.60;44.20
12413;DHT22;13877;18.896;-99.222;2023-05-13T13:52:58;24.60;45.80
12413;DHT22;13877;18.896;-99.222;2023-05-13T13:55:26;24.70;45.70
12413;DHT22;13877;18.896;-99.222;2023-05-13T13:57:53;24.80;44.90
12413;DHT22;13877;18.896;-99.222;2023-05-13T14:00:19;25.00;45.20
12413;DHT22;13877;18.896;-99.222;2023-05-13T14:02:46;25.00;46.10
12413;DHT22;13877;18.896;-99.222;2023-05-13T14:05:13;24.80;46.00
12413;DHT22;13877;18.896;-99.222;2023-05-13T14:07:43;24.60;46.80
12413;DHT22;13877;18.896;-99.222;2023-05-13T14:10:11;24.80;46.40
12413;DHT22;13877;18.896;-99.222;2023-05-13T14:12:38;24.80;45.40
12413;DHT22;13877;18.896;-99.222;2023-05-13T14:15:05;24.70;46.40
12413;DHT22;13877;18.896;-99.222;2023-05-13T14:17:33;24.60;45.20
12413;DHT22;13877;18.896;-99.222;2023-05-13T14:20:00;24.60;45.20
12413;DHT22;13877;18.896;-99.222;2023-05-13T14:22:27;24.70;44.70
12413;DHT22;13877;18.896;-99.222;2023-05-13T14:24:54;24.80;44.10
12413;DHT22;13877;18.896;-99.222;2023-05-13T14:27:21;25.10;43.70
12413;DHT22;13877;18.896;-99.222;2023-05-13T14:29:50;25.60;43.60
12413;DHT22;13877;18.896;-99.222;2023-05-13T14:32:16;25.50;43.40
12413;DHT22;13877;18.896;-99.222;2023-05-13T14:34:43;25.80;43.30
12413;DHT22;13877;18.896;-99.222;2023-05-13T14:37:10;26.20;42.80
12413;DHT22;13877;18.896;-99.222;2023-05-13T14:39:37;26.10;42.20
12413;DHT22;13877;18.896;-99.222;2023-05-13T14:42:04;26.20;42.60
12413;DHT22;13877;18.896;-99.222;2023-05-13T14:44:31;26.00;42.90
12413;DHT22;13877;18.896;-99.222;2023-05-13T14:46:58;26.30;42.40
12413;DHT22;13877;18.896;-99.222;2023-05-13T14:49:25;26.20;41.80
12413;DHT22;13877;18.896;-99.222;2023-05-13T14:51:52;26.40;41.70
12413;DHT22;13877;18.896;-99.222;2023-05-13T14:54:19;27.00;41.20
12413;DHT22;13877;18.896;-99.222;2023-05-13T14:56:47;27.30;41.10
12413;DHT22;13877;18.896;-99.222;2023-05-13T14:59:14;27.50;41.10
12413;DHT22;13877;18.896;-99.222;2023-05-13T15:01:41;27.50;40.80
12413;DHT22;13877;18.896;-99.222;2023-05-13T15:04:08;27.20;40.80
12413;DHT22;13877;18.896;-99.222;2023-05-13T15:06:36;26.90;40.60
12413;DHT22;13877;18.896;-99.222;2023-05-13T15:09:03;26.90;40.60
12413;DHT22;13877;18.896;-99.222;2023-05-13T15:11:31;26.80;40.30
12413;DHT22;13877;18.896;-99.222;2023-05-13T15:13:58;27.00;41.10
12413;DHT22;13877;18.896;-99.222;2023-05-13T15:16:25;27.50;40.60
12413;DHT22;13877;18.896;-99.222;2023-05-13T15:18:52;27.90;39.80
12413;DHT22;13877;18.896;-99.222;2023-05-13T15:21:19;28.00;39.00
12413;DHT22;13877;18.896;-99.222;2023-05-13T15:23:46;28.00;39.10
12413;DHT22;13877;18.896;-99.222;2023-05-13T15:26:13;28.60;38.60
12413;DHT22;13877;18.896;-99.222;2023-05-13T15:28:40;28.70;38.60
12413;DHT22;13877;18.896;-99.222;2023-05-13T15:31:07;28.70;39.10
12413;DHT22;13877;18.896;-99.222;2023-05-13T15:33:34;29.00;37.50
12413;DHT22;13877;18.896;-99.222;2023-05-13T15:36:01;28.80;37.80
12413;DHT22;13877;18.896;-99.222;2023-05-13T15:38:28;28.70;38.20
12413;DHT22;13877;18.896;-99.222;2023-05-13T15:40:55;28.50;38.60
12413;DHT22;13877;18.896;-99.222;2023-05-13T15:43:22;28.20;38.80